sensor_id;sensor_type;location;lat;lon;timestamp;temperature;humidity
24207;DHT22;12351;52.284;9.160;2023-04-25T00:01:34;7.00;99.90
24207;DHT22;12351;52.284;9.160;2023-04-25T00:04:21;6.90;99.90
24207;DHT22;12351;52.284;9.160;2023-04-25T00:07:08;6.90;99.90
24207;DHT22;12351;52.284;9.160;2023-04-25T00:09:56;6.90;99.90
24207;DHT22;12351;52.284;9.160;2023-04-25T00:12:43;6.90;99.90
24207;DHT22;12351;52.284;9.160;2023-04-25T00:15:31;6.90;99.90
24207;DHT22;12351;52.284;9.160;2023-04-25T00:18:18;6.90;99.90
24207;DHT22;12351;52.284;9.160;2023-04-25T00:21:06;6.90;99.90
24207;DHT22;12351;52.284;9.160;2023-04-25T00:23:53;6.80;99.90
24207;DHT22;12351;52.284;9.160;2023-04-25T00:26:41;6.80;99.90
24207;DHT22;12351;52.284;9.160;2023-04-25T00:29:28;6.80;99.90
24207;DHT22;12351;52.284;9.160;2023-04-25T00:32:15;6.80;99.90
24207;DHT22;12351;52.284;9.160;2023-04-25T00:35:02;6.80;99.90
24207;DHT22;12351;52.284;9.160;2023-04-25T00:37:49;6.80;99.90
24207;DHT22;12351;52.284;9.160;2023-04-25T00:40:36;6.70;99.90
24207;DHT22;12351;52.284;9.160;2023-04-25T00:43:25;6.70;99.90
24207;DHT22;12351;52.284;9.160;2023-04-25T00:46:12;6.80;99.90
24207;DHT22;12351;52.284;9.160;2023-04-25T00:48:59;6.80;99.90
24207;DHT22;12351;52.284;9.160;2023-04-25T00:51:46;6.80;99.90
24207;DHT22;12351;52.284;9.160;2023-04-25T00:54:33;6.80;99.90
24207;DHT22;12351;52.284;9.160;2023-04-25T00:57:20;6.80;99.90
24207;DHT22;12351;52.284;9.160;2023-04-25T01:00:08;6.70;99.90
24207;DHT22;12351;52.284;9.160;2023-04-25T01:02:56;6.70;99.90
24207;DHT22;12351;52.284;9.160;2023-04-25T01:05:43;6.70;99.90
24207;DHT22;12351;52.284;9.160;2023-04-25T01:08:31;6.70;99.90
24207;DHT22;12351;52.284;9.160;2023-04-25T01:11:18;6.70;99.90
24207;DHT22;12351;52.284;9.160;2023-04-25T01:14:05;6.70;99.90
24207;DHT22;12351;52.284;9.160;2023-04-25T01:16:53;6.70;99.90
24207;DHT22;12351;52.284;9.160;2023-04-25T01:19:41;6.70;99.90
24207;DHT22;12351;52.284;9.160;2023-04-25T01:22:28;6.70;99.90
24207;DHT22;12351;52.284;9.160;2023-04-25T01:25:15;6.70;99.90
24207;DHT22;12351;52.284;9.160;2023-04-25T01:28:02;6.60;99.90
24207;DHT22;12351;52.284;9.160;2023-04-25T01:30:50;6.60;99.90
24207;DHT22;12351;52.284;9.160;2023-04-25T01:33:38;6.60;99.90
24207;DHT22;12351;52.284;9.160;2023-04-25T01:36:25;6.60;99.90
24207;DHT22;12351;52.284;9.160;2023-04-25T01:39:13;6.60;99.90
24207;DHT22;12351;52.284;9.160;2023-04-25T01:42:00;6.60;99.90
24207;DHT22;12351;52.284;9.160;2023-04-25T01:44:47;6.60;99.90
24207;DHT22;12351;52.284;9.160;2023-04-25T01:47:34;6.60;99.90
24207;DHT22;12351;52.284;9.160;2023-04-25T01:50:22;6.60;99.90
24207;DHT22;12351;52.284;9.160;2023-04-25T01:53:10;6.50;99.90
24207;DHT22;12351;52.284;9.160;2023-04-25T01:55:58;6.50;99.90
24207;DHT22;12351;52.284;9.160;2023-04-25T01:58:46;6.50;99.90
24207;DHT22;12351;52.284;9.160;2023-04-25T02:01:33;6.50;99.90
24207;DHT22;12351;52.284;9.160;2023-04-25T02:04:20;6.40;99.90
24207;DHT22;12351;52.284;9.160;2023-04-25T02:07:07;6.40;99.90
24207;DHT22;12351;52.284;9.160;2023-04-25T02:09:54;6.40;99.90
24207;DHT22;12351;52.284;9.160;2023-04-25T02:12:41;6.30;99.90
24207;DHT22;12351;52.284;9.160;2023-04-25T02:15:28;6.30;99.90
24207;DHT22;12351;52.284;9.160;2023-04-25T02:18:15;6.40;99.90
24207;DHT22;12351;52.284;9.160;2023-04-25T02:21:02;6.40;99.90
24207;DHT22;12351;52.284;9.160;2023-04-25T02:23:49;6.40;99.90
24207;DHT22;12351;52.284;9.160;2023-04-25T02:26:38;6.40;99.90
24207;DHT22;12351;52.284;9.160;2023-04-25T02:29:25;6.30;99.90
24207;DHT22;12351;52.284;9.160;2023-04-25T02:32:11;6.40;99.90
24207;DHT22;12351;52.284;9.160;2023-04-25T02:34:58;6.40;99.90
24207;DHT22;12351;52.284;9.160;2023-04-25T02:37:47;6.40;99.90
24207;DHT22;12351;52.284;9.160;2023-04-25T02:40:34;6.40;99.90
24207;DHT22;12351;52.284;9.160;2023-04-25T02:43:21;6.40;99.90
24207;DHT22;12351;52.284;9.160;2023-04-25T02:46:09;6.30;99.90
24207;DHT22;12351;52.284;9.160;2023-04-25T02:48:56;6.30;99.90
24207;DHT22;12351;52.284;9.160;2023-04-25T02:51:42;6.30;99.90
24207;DHT22;12351;52.284;9.160;2023-04-25T02:54:30;6.30;99.90
24207;DHT22;12351;52.284;9.160;2023-04-25T02:57:17;6.30;99.90
24207;DHT22;12351;52.284;9.160;2023-04-25T03:00:04;6.30;99.90
24207;DHT22;12351;52.284;9.160;2023-04-25T03:02:51;6.30;99.90
24207;DHT22;12351;52.284;9.160;2023-04-25T03:05:38;6.30;99.90
24207;DHT22;12351;52.284;9.160;2023-04-25T03:08:25;6.30;99.90
24207;DHT22;12351;52.284;9.160;2023-04-25T03:11:14;6.30;99.90
24207;DHT22;12351;52.284;9.160;2023-04-25T03:14:01;6.30;99.90
24207;DHT22;12351;52.284;9.160;2023-04-25T03:16:48;6.30;99.90
24207;DHT22;12351;52.284;9.160;2023-04-25T03:19:35;6.30;99.90
24207;DHT22;12351;52.284;9.160;2023-04-25T03:22:23;6.30;99.90
24207;DHT22;12351;52.284;9.160;2023-04-25T03:25:10;6.30;99.90
24207;DHT22;12351;52.284;9.160;2023-04-25T03:27:57;6.30;99.90
24207;DHT22;12351;52.284;9.160;2023-04-25T03:30:44;6.30;99.90
24207;DHT22;12351;52.284;9.160;2023-04-25T03:33:31;6.30;99.90
24207;DHT22;12351;52.284;9.160;2023-04-25T03:36:18;6.30;99.90
24207;DHT22;12351;52.284;9.160;2023-04-25T03:39:05;6.20;99.90
24207;DHT22;12351;52.284;9.160;2023-04-25T03:41:52;6.20;99.90
24207;DHT22;12351;52.284;9.160;2023-04-25T03:44:39;6.20;99.90
24207;DHT22;12351;52.284;9.160;2023-04-25T03:47:26;6.20;99.90
24207;DHT22;12351;52.284;9.160;2023-04-25T03:50:13;6.30;99.90
24207;DHT22;12351;52.284;9.160;2023-04-25T03:53:00;6.30;99.90
24207;DHT22;12351;52.284;9.160;2023-04-25T03:55:47;6.30;99.90
24207;DHT22;12351;52.284;9.160;2023-04-25T03:58:34;6.20;99.90
24207;DHT22;12351;52.284;9.160;2023-04-25T04:01:21;6.20;99.90
24207;DHT22;12351;52.284;9.160;2023-04-25T04:04:08;6.20;99.90
24207;DHT22;12351;52.284;9.160;2023-04-25T04:06:59;6.20;99.90
24207;DHT22;12351;52.284;9.160;2023-04-25T04:09:46;6.20;99.90
24207;DHT22;12351;52.284;9.160;2023-04-25T04:12:33;6.20;99.90
24207;DHT22;12351;52.284;9.160;2023-04-25T04:15:20;6.10;99.90
24207;DHT22;12351;52.284;9.160;2023-04-25T04:18:07;6.10;99.90
24207;DHT22;12351;52.284;9.160;2023-04-25T04:20:55;6.10;99.90
24207;DHT22;12351;52.284;9.160;2023-04-25T04:23:43;6.10;99.90
24207;DHT22;12351;52.284;9.160;2023-04-25T04:26:32;6.20;99.90
24207;DHT22;12351;52.284;9.160;2023-04-25T04:29:20;6.10;99.90
24207;DHT22;12351;52.284;9.160;2023-04-25T04:32:07;6.10;99.90
24207;DHT22;12351;52.284;9.160;2023-04-25T04:34:54;6.10;99.90
24207;DHT22;12351;52.284;9.160;2023-04-25T04:37:42;6.10;99.90
24207;DHT22;12351;52.284;9.160;2023-04-25T04:40:30;6.10;99.90
24207;DHT22;12351;52.284;9.160;2023-04-25T04:43:17;6.10;99.90
24207;DHT22;12351;52.284;9.160;2023-04-25T04:46:04;6.10;99.90
24207;DHT22;12351;52.284;9.160;2023-04-25T04:48:52;6.10;99.90
24207;DHT22;12351;52.284;9.160;2023-04-25T04:51:39;6.10;99.90
24207;DHT22;12351;52.284;9.160;2023-04-25T04:54:27;6.10;99.90
24207;DHT22;12351;52.284;9.160;2023-04-25T04:57:14;6.10;99.90
24207;DHT22;12351;52.284;9.160;2023-04-25T05:00:02;6.10;99.90
24207;DHT22;12351;52.284;9.160;2023-04-25T05:02:51;6.10;99.90
24207;DHT22;12351;52.284;9.160;2023-04-25T05:05:38;6.10;99.90
24207;DHT22;12351;52.284;9.160;2023-04-25T05:08:25;6.00;99.90
24207;DHT22;12351;52.284;9.160;2023-04-25T05:11:12;6.00;99.90
24207;DHT22;12351;52.284;9.160;2023-04-25T05:13:59;6.00;99.90
24207;DHT22;12351;52.284;9.160;2023-04-25T05:16:46;6.00;99.90
24207;DHT22;12351;52.284;9.160;2023-04-25T05:19:33;6.00;99.90
24207;DHT22;12351;52.284;9.160;2023-04-25T05:22:20;6.00;99.90
24207;DHT22;12351;52.284;9.160;2023-04-25T05:25:08;6.00;99.90
24207;DHT22;12351;52.284;9.160;2023-04-25T05:27:56;6.00;99.90
24207;DHT22;12351;52.284;9.160;2023-04-25T05:30:44;5.90;99.90
24207;DHT22;12351;52.284;9.160;2023-04-25T05:33:31;6.00;99.90
24207;DHT22;12351;52.284;9.160;2023-04-25T05:36:19;6.00;99.90
24207;DHT22;12351;52.284;9.160;2023-04-25T05:39:06;5.90;99.90
24207;DHT22;12351;52.284;9.160;2023-04-25T05:41:54;5.90;99.90
24207;DHT22;12351;52.284;9.160;2023-04-25T05:44:41;6.00;99.90
24207;DHT22;12351;52.284;9.160;2023-04-25T05:47:28;6.00;99.90
24207;DHT22;12351;52.284;9.160;2023-04-25T05:50:15;6.00;99.90
24207;DHT22;12351;52.284;9.160;2023-04-25T05:53:03;5.90;99.90
24207;DHT22;12351;52.284;9.160;2023-04-25T05:55:51;6.00;99.90
24207;DHT22;12351;52.284;9.160;2023-04-25T05:58:38;6.00;99.90
24207;DHT22;12351;52.284;9.160;2023-04-25T06:01:26;6.10;99.90
24207;DHT22;12351;52.284;9.160;2023-04-25T06:04:13;6.10;99.90
24207;DHT22;12351;52.284;9.160;2023-04-25T06:07:00;6.10;99.90
24207;DHT22;12351;52.284;9.160;2023-04-25T06:09:48;6.10;99.90
24207;DHT22;12351;52.284;9.160;2023-04-25T06:12:36;6.10;99.90
24207;DHT22;12351;52.284;9.160;2023-04-25T06:15:24;6.20;99.90
24207;DHT22;12351;52.284;9.160;2023-04-25T06:18:10;6.30;99.90
24207;DHT22;12351;52.284;9.160;2023-04-25T06:20:57;6.30;99.90
24207;DHT22;12351;52.284;9.160;2023-04-25T06:23:44;6.30;99.90
24207;DHT22;12351;52.284;9.160;2023-04-25T06:26:31;6.30;99.90
24207;DHT22;12351;52.284;9.160;2023-04-25T06:29:19;6.20;99.90
24207;DHT22;12351;52.284;9.160;2023-04-25T06:32:06;6.30;93.10
24207;DHT22;12351;52.284;9.160;2023-04-25T06:34:53;6.30;44.80
24207;DHT22;12351;52.284;9.160;2023-04-25T06:37:40;6.30;83.10
24207;DHT22;12351;52.284;9.160;2023-04-25T06:40:27;6.30;97.00
24207;DHT22;12351;52.284;9.160;2023-04-25T06:43:14;6.20;77.60
24207;DHT22;12351;52.284;9.160;2023-04-25T06:46:01;6.20;27.00
24207;DHT22;12351;52.284;9.160;2023-04-25T06:48:48;6.30;43.80
24207;DHT22;12351;52.284;9.160;2023-04-25T06:51:35;6.20;18.00
24207;DHT22;12351;52.284;9.160;2023-04-25T06:54:22;6.40;27.40
24207;DHT22;12351;52.284;9.160;2023-04-25T06:57:10;6.50;27.10
24207;DHT22;12351;52.284;9.160;2023-04-25T06:59:57;6.60;14.00
24207;DHT22;12351;52.284;9.160;2023-04-25T07:02:45;6.50;1.00
24207;DHT22;12351;52.284;9.160;2023-04-25T07:05:32;6.60;1.00
24207;DHT22;12351;52.284;9.160;2023-04-25T07:08:19;6.60;1.00
24207;DHT22;12351;52.284;9.160;2023-04-25T07:11:07;6.60;1.00
24207;DHT22;12351;52.284;9.160;2023-04-25T07:13:53;6.60;1.00
24207;DHT22;12351;52.284;9.160;2023-04-25T07:16:41;6.60;1.00
24207;DHT22;12351;52.284;9.160;2023-04-25T07:19:28;6.60;1.00
24207;DHT22;12351;52.284;9.160;2023-04-25T07:22:15;6.60;1.00
24207;DHT22;12351;52.284;9.160;2023-04-25T07:25:03;6.80;1.00
24207;DHT22;12351;52.284;9.160;2023-04-25T07:27:51;6.70;1.00
24207;DHT22;12351;52.284;9.160;2023-04-25T07:30:38;6.70;1.00
24207;DHT22;12351;52.284;9.160;2023-04-25T07:33:25;6.80;1.00
24207;DHT22;12351;52.284;9.160;2023-04-25T07:36:13;6.80;1.00
24207;DHT22;12351;52.284;9.160;2023-04-25T07:39:01;6.80;1.00
24207;DHT22;12351;52.284;9.160;2023-04-25T07:41:48;6.80;1.00
24207;DHT22;12351;52.284;9.160;2023-04-25T07:44:35;6.90;1.00
24207;DHT22;12351;52.284;9.160;2023-04-25T07:47:23;7.00;1.00
24207;DHT22;12351;52.284;9.160;2023-04-25T07:50:11;7.00;1.00
24207;DHT22;12351;52.284;9.160;2023-04-25T07:52:58;7.10;1.00
24207;DHT22;12351;52.284;9.160;2023-04-25T07:55:45;7.10;1.00
24207;DHT22;12351;52.284;9.160;2023-04-25T07:58:32;7.10;1.00
24207;DHT22;12351;52.284;9.160;2023-04-25T08:01:18;7.10;99.90
24207;DHT22;12351;52.284;9.160;2023-04-25T08:04:07;7.20;99.90
24207;DHT22;12351;52.284;9.160;2023-04-25T08:06:54;7.30;1.00
24207;DHT22;12351;52.284;9.160;2023-04-25T08:09:41;7.30;1.00
24207;DHT22;12351;52.284;9.160;2023-04-25T08:12:28;7.40;1.00
24207;DHT22;12351;52.284;9.160;2023-04-25T08:15:15;7.30;1.00
24207;DHT22;12351;52.284;9.160;2023-04-25T08:18:02;7.30;1.00
24207;DHT22;12351;52.284;9.160;2023-04-25T08:20:50;7.30;1.00
24207;DHT22;12351;52.284;9.160;2023-04-25T08:23:37;7.30;1.00
24207;DHT22;12351;52.284;9.160;2023-04-25T08:26:25;7.30;1.00
24207;DHT22;12351;52.284;9.160;2023-04-25T08:29:12;7.20;1.00
24207;DHT22;12351;52.284;9.160;2023-04-25T08:31:59;7.30;1.00
24207;DHT22;12351;52.284;9.160;2023-04-25T08:34:46;7.10;1.00
24207;DHT22;12351;52.284;9.160;2023-04-25T08:37:33;7.20;1.00
24207;DHT22;12351;52.284;9.160;2023-04-25T08:40:23;7.20;1.00
24207;DHT22;12351;52.284;9.160;2023-04-25T08:43:13;7.30;1.00
24207;DHT22;12351;52.284;9.160;2023-04-25T08:46:00;7.50;1.00
24207;DHT22;12351;52.284;9.160;2023-04-25T08:48:48;7.70;99.90
24207;DHT22;12351;52.284;9.160;2023-04-25T08:51:43;7.70;1.00
24207;DHT22;12351;52.284;9.160;2023-04-25T08:54:27;7.60;99.90
24207;DHT22;12351;52.284;9.160;2023-04-25T08:57:16;7.60;1.00
24207;DHT22;12351;52.284;9.160;2023-04-25T09:00:03;7.50;99.90
24207;DHT22;12351;52.284;9.160;2023-04-25T09:02:51;7.50;99.90
24207;DHT22;12351;52.284;9.160;2023-04-25T09:05:40;7.60;99.90
24207;DHT22;12351;52.284;9.160;2023-04-25T09:08:27;7.70;24.40
24207;DHT22;12351;52.284;9.160;2023-04-25T09:11:14;7.60;1.00
24207;DHT22;12351;52.284;9.160;2023-04-25T09:19:41;7.60;99.90
24207;DHT22;12351;52.284;9.160;2023-04-25T09:22:30;7.50;99.90
24207;DHT22;12351;52.284;9.160;2023-04-25T09:25:17;7.60;99.90
24207;DHT22;12351;52.284;9.160;2023-04-25T09:28:06;7.80;99.90
24207;DHT22;12351;52.284;9.160;2023-04-25T09:30:55;7.80;99.90
24207;DHT22;12351;52.284;9.160;2023-04-25T09:33:43;7.80;1.00
24207;DHT22;12351;52.284;9.160;2023-04-25T09:36:30;7.90;1.00
24207;DHT22;12351;52.284;9.160;2023-04-25T09:39:18;8.00;1.00
24207;DHT22;12351;52.284;9.160;2023-04-25T09:42:07;8.10;1.00
24207;DHT22;12351;52.284;9.160;2023-04-25T09:44:56;8.10;1.00
24207;DHT22;12351;52.284;9.160;2023-04-25T09:47:43;8.10;99.90
24207;DHT22;12351;52.284;9.160;2023-04-25T09:50:30;8.20;99.90
24207;DHT22;12351;52.284;9.160;2023-04-25T09:53:17;8.20;99.90
24207;DHT22;12351;52.284;9.160;2023-04-25T09:56:06;8.30;1.00
24207;DHT22;12351;52.284;9.160;2023-04-25T09:58:54;8.30;1.00
24207;DHT22;12351;52.284;9.160;2023-04-25T10:01:43;8.30;1.00
24207;DHT22;12351;52.284;9.160;2023-04-25T10:04:32;8.40;1.00
24207;DHT22;12351;52.284;9.160;2023-04-25T10:07:22;8.40;1.00
24207;DHT22;12351;52.284;9.160;2023-04-25T10:10:12;8.50;1.00
24207;DHT22;12351;52.284;9.160;2023-04-25T10:13:03;8.50;1.00
24207;DHT22;12351;52.284;9.160;2023-04-25T10:15:53;8.60;99.90
24207;DHT22;12351;52.284;9.160;2023-04-25T10:18:44;8.70;99.90
24207;DHT22;12351;52.284;9.160;2023-04-25T10:21:35;8.80;99.90
24207;DHT22;12351;52.284;9.160;2023-04-25T10:24:25;8.90;99.90
24207;DHT22;12351;52.284;9.160;2023-04-25T10:27:13;9.00;99.90
24207;DHT22;12351;52.284;9.160;2023-04-25T10:30:07;9.10;99.90
24207;DHT22;12351;52.284;9.160;2023-04-25T10:32:58;9.00;1.00
24207;DHT22;12351;52.284;9.160;2023-04-25T10:35:45;9.00;1.00
24207;DHT22;12351;52.284;9.160;2023-04-25T10:38:38;9.10;1.00
24207;DHT22;12351;52.284;9.160;2023-04-25T10:41:26;9.10;1.00
24207;DHT22;12351;52.284;9.160;2023-04-25T10:44:19;9.10;1.00
24207;DHT22;12351;52.284;9.160;2023-04-25T10:47:09;9.20;1.00
24207;DHT22;12351;52.284;9.160;2023-04-25T10:50:00;9.30;1.00
24207;DHT22;12351;52.284;9.160;2023-04-25T10:52:48;9.30;1.00
24207;DHT22;12351;52.284;9.160;2023-04-25T10:58:32;9.20;1.00
24207;DHT22;12351;52.284;9.160;2023-04-25T11:01:21;9.10;1.00
24207;DHT22;12351;52.284;9.160;2023-04-25T11:04:19;9.10;1.00
24207;DHT22;12351;52.284;9.160;2023-04-25T11:09:45;9.10;1.00
24207;DHT22;12351;52.284;9.160;2023-04-25T11:12:33;8.90;1.00
24207;DHT22;12351;52.284;9.160;2023-04-25T11:15:25;8.80;1.00
24207;DHT22;12351;52.284;9.160;2023-04-25T11:21:05;9.00;1.00
24207;DHT22;12351;52.284;9.160;2023-04-25T11:23:52;8.90;1.00
24207;DHT22;12351;52.284;9.160;2023-04-25T11:26:43;8.90;1.00
24207;DHT22;12351;52.284;9.160;2023-04-25T11:29:32;8.90;1.00
24207;DHT22;12351;52.284;9.160;2023-04-25T11:32:20;8.90;1.00
24207;DHT22;12351;52.284;9.160;2023-04-25T11:35:10;8.90;1.00
24207;DHT22;12351;52.284;9.160;2023-04-25T11:37:58;8.90;1.00
24207;DHT22;12351;52.284;9.160;2023-04-25T11:40:49;9.00;1.00
24207;DHT22;12351;52.284;9.160;2023-04-25T11:43:38;9.20;1.00
24207;DHT22;12351;52.284;9.160;2023-04-25T11:46:28;9.20;1.00
24207;DHT22;12351;52.284;9.160;2023-04-25T11:49:18;9.30;1.00
24207;DHT22;12351;52.284;9.160;2023-04-25T11:52:07;9.40;1.00
24207;DHT22;12351;52.284;9.160;2023-04-25T11:54:55;9.40;1.00
24207;DHT22;12351;52.284;9.160;2023-04-25T11:57:45;9.50;1.00
24207;DHT22;12351;52.284;9.160;2023-04-25T12:00:34;9.60;1.00
24207;DHT22;12351;52.284;9.160;2023-04-25T12:03:24;9.70;1.00
24207;DHT22;12351;52.284;9.160;2023-04-25T12:06:16;9.90;1.00
24207;DHT22;12351;52.284;9.160;2023-04-25T12:09:07;9.90;1.00
24207;DHT22;12351;52.284;9.160;2023-04-25T12:11:55;10.10;1.00
24207;DHT22;12351;52.284;9.160;2023-04-25T12:14:46;10.30;1.00
24207;DHT22;12351;52.284;9.160;2023-04-25T12:17:34;10.20;1.00
24207;DHT22;12351;52.284;9.160;2023-04-25T12:20:25;10.40;1.00
24207;DHT22;12351;52.284;9.160;2023-04-25T12:23:15;10.60;1.00
24207;DHT22;12351;52.284;9.160;2023-04-25T12:26:02;10.40;1.00
24207;DHT22;12351;52.284;9.160;2023-04-25T12:28:51;10.30;1.00
24207;DHT22;12351;52.284;9.160;2023-04-25T12:31:40;10.40;1.00
24207;DHT22;12351;52.284;9.160;2023-04-25T12:34:29;10.40;1.00
24207;DHT22;12351;52.284;9.160;2023-04-25T12:37:20;10.30;1.00
24207;DHT22;12351;52.284;9.160;2023-04-25T12:40:08;10.30;1.00
24207;DHT22;12351;52.284;9.160;2023-04-25T12:42:59;10.40;1.00
24207;DHT22;12351;52.284;9.160;2023-04-25T12:45:49;9.90;1.00
24207;DHT22;12351;52.284;9.160;2023-04-25T12:48:38;9.50;1.00
24207;DHT22;12351;52.284;9.160;2023-04-25T12:51:26;9.30;1.00
24207;DHT22;12351;52.284;9.160;2023-04-25T12:54:16;9.20;1.00
24207;DHT22;12351;52.284;9.160;2023-04-25T12:57:05;9.50;5.50
24207;DHT22;12351;52.284;9.160;2023-04-25T12:59:56;9.60;1.00
24207;DHT22;12351;52.284;9.160;2023-04-25T13:02:43;9.80;1.00
24207;DHT22;12351;52.284;9.160;2023-04-25T13:05:31;10.20;99.90
24207;DHT22;12351;52.284;9.160;2023-04-25T13:08:21;10.50;18.40
24207;DHT22;12351;52.284;9.160;2023-04-25T13:11:10;10.60;1.00
24207;DHT22;12351;52.284;9.160;2023-04-25T13:14:01;10.60;1.00
24207;DHT22;12351;52.284;9.160;2023-04-25T13:16:51;10.90;1.00
24207;DHT22;12351;52.284;9.160;2023-04-25T13:19:42;11.00;1.00
24207;DHT22;12351;52.284;9.160;2023-04-25T13:22:28;11.10;1.00
24207;DHT22;12351;52.284;9.160;2023-04-25T13:25:17;11.20;1.00
24207;DHT22;12351;52.284;9.160;2023-04-25T13:28:07;11.50;1.00
24207;DHT22;12351;52.284;9.160;2023-04-25T13:30:55;11.50;1.00
24207;DHT22;12351;52.284;9.160;2023-04-25T13:33:44;11.20;1.00
24207;DHT22;12351;52.284;9.160;2023-04-25T13:36:32;10.90;1.00
24207;DHT22;12351;52.284;9.160;2023-04-25T13:39:19;10.80;1.00
24207;DHT22;12351;52.284;9.160;2023-04-25T13:42:07;10.70;1.00
24207;DHT22;12351;52.284;9.160;2023-04-25T13:44:55;10.90;1.00
24207;DHT22;12351;52.284;9.160;2023-04-25T13:47:47;10.90;1.00
24207;DHT22;12351;52.284;9.160;2023-04-25T13:50:34;10.80;1.00
24207;DHT22;12351;52.284;9.160;2023-04-25T13:53:25;10.60;1.00
24207;DHT22;12351;52.284;9.160;2023-04-25T13:56:13;10.00;1.00
24207;DHT22;12351;52.284;9.160;2023-04-25T13:59:04;9.90;1.00
24207;DHT22;12351;52.284;9.160;2023-04-25T14:01:51;10.00;1.00
24207;DHT22;12351;52.284;9.160;2023-04-25T14:04:38;10.00;1.00
24207;DHT22;12351;52.284;9.160;2023-04-25T14:07:27;10.10;99.90
24207;DHT22;12351;52.284;9.160;2023-04-25T14:10:20;10.10;99.90
24207;DHT22;12351;52.284;9.160;2023-04-25T14:13:10;10.10;99.90
24207;DHT22;12351;52.284;9.160;2023-04-25T14:15:59;10.20;99.90
24207;DHT22;12351;52.284;9.160;2023-04-25T14:18:49;10.20;99.90
24207;DHT22;12351;52.284;9.160;2023-04-25T14:21:38;10.10;99.90
24207;DHT22;12351;52.284;9.160;2023-04-25T14:24:29;10.20;1.00
24207;DHT22;12351;52.284;9.160;2023-04-25T14:27:17;10.20;99.90
24207;DHT22;12351;52.284;9.160;2023-04-25T14:30:05;10.20;99.90
24207;DHT22;12351;52.284;9.160;2023-04-25T14:32:54;10.20;25.30
24207;DHT22;12351;52.284;9.160;2023-04-25T14:35:43;10.20;88.30
24207;DHT22;12351;52.284;9.160;2023-04-25T14:38:33;10.20;10.30
24207;DHT22;12351;52.284;9.160;2023-04-25T14:41:19;10.20;99.90
24207;DHT22;12351;52.284;9.160;2023-04-25T14:44:08;10.20;1.00
24207;DHT22;12351;52.284;9.160;2023-04-25T14:46:58;10.10;1.00
24207;DHT22;12351;52.284;9.160;2023-04-25T14:49:45;10.20;1.00
24207;DHT22;12351;52.284;9.160;2023-04-25T14:52:36;10.20;1.00
24207;DHT22;12351;52.284;9.160;2023-04-25T14:55:26;10.30;1.00
24207;DHT22;12351;52.284;9.160;2023-04-25T14:58:13;10.40;1.00
24207;DHT22;12351;52.284;9.160;2023-04-25T15:01:02;10.70;1.00
24207;DHT22;12351;52.284;9.160;2023-04-25T15:03:49;10.80;1.00
24207;DHT22;12351;52.284;9.160;2023-04-25T15:06:38;10.70;1.00
24207;DHT22;12351;52.284;9.160;2023-04-25T15:09:27;10.50;1.00
24207;DHT22;12351;52.284;9.160;2023-04-25T15:12:17;10.40;1.00
24207;DHT22;12351;52.284;9.160;2023-04-25T15:15:04;10.50;1.00
24207;DHT22;12351;52.284;9.160;2023-04-25T15:17:55;10.30;1.00
24207;DHT22;12351;52.284;9.160;2023-04-25T15:20:46;10.20;1.00
24207;DHT22;12351;52.284;9.160;2023-04-25T15:23:36;10.00;1.00
24207;DHT22;12351;52.284;9.160;2023-04-25T15:26:29;9.80;1.00
24207;DHT22;12351;52.284;9.160;2023-04-25T15:29:18;9.70;99.90
24207;DHT22;12351;52.284;9.160;2023-04-25T15:32:08;9.70;99.90
24207;DHT22;12351;52.284;9.160;2023-04-25T15:35:00;9.70;99.90
24207;DHT22;12351;52.284;9.160;2023-04-25T15:37:47;9.70;99.90
24207;DHT22;12351;52.284;9.160;2023-04-25T15:40:36;9.60;1.00
24207;DHT22;12351;52.284;9.160;2023-04-25T15:43:27;9.70;1.00
24207;DHT22;12351;52.284;9.160;2023-04-25T15:46:15;9.60;1.00
24207;DHT22;12351;52.284;9.160;2023-04-25T15:49:03;9.60;1.00
24207;DHT22;12351;52.284;9.160;2023-04-25T15:51:53;9.50;1.00
24207;DHT22;12351;52.284;9.160;2023-04-25T15:54:41;9.60;15.10
24207;DHT22;12351;52.284;9.160;2023-04-25T15:57:29;9.80;99.90
24207;DHT22;12351;52.284;9.160;2023-04-25T16:00:16;9.80;1.00
24207;DHT22;12351;52.284;9.160;2023-04-25T16:03:04;9.80;1.00
24207;DHT22;12351;52.284;9.160;2023-04-25T16:05:56;9.70;1.00
24207;DHT22;12351;52.284;9.160;2023-04-25T16:08:44;9.60;1.00
24207;DHT22;12351;52.284;9.160;2023-04-25T16:11:34;9.70;1.00
24207;DHT22;12351;52.284;9.160;2023-04-25T16:14:21;9.60;99.90
24207;DHT22;12351;52.284;9.160;2023-04-25T16:17:11;9.50;99.90
24207;DHT22;12351;52.284;9.160;2023-04-25T16:19:59;9.50;99.90
24207;DHT22;12351;52.284;9.160;2023-04-25T16:22:48;9.40;99.90
24207;DHT22;12351;52.284;9.160;2023-04-25T16:25:37;9.40;99.90
24207;DHT22;12351;52.284;9.160;2023-04-25T16:28:24;9.40;99.90
24207;DHT22;12351;52.284;9.160;2023-04-25T16:31:12;9.30;99.90
24207;DHT22;12351;52.284;9.160;2023-04-25T16:34:03;8.80;1.00
24207;DHT22;12351;52.284;9.160;2023-04-25T16:36:54;8.40;1.00
24207;DHT22;12351;52.284;9.160;2023-04-25T16:39:42;8.40;1.00
24207;DHT22;12351;52.284;9.160;2023-04-25T16:42:33;8.40;1.00
24207;DHT22;12351;52.284;9.160;2023-04-25T16:45:21;8.40;1.00
24207;DHT22;12351;52.284;9.160;2023-04-25T16:48:09;8.30;61.40
24207;DHT22;12351;52.284;9.160;2023-04-25T16:50:58;8.30;1.00
24207;DHT22;12351;52.284;9.160;2023-04-25T16:53:48;8.30;1.00
24207;DHT22;12351;52.284;9.160;2023-04-25T16:56:36;8.30;1.00
24207;DHT22;12351;52.284;9.160;2023-04-25T16:59:26;8.30;1.00
24207;DHT22;12351;52.284;9.160;2023-04-25T17:02:16;8.30;1.00
24207;DHT22;12351;52.284;9.160;2023-04-25T17:05:08;8.30;1.00
24207;DHT22;12351;52.284;9.160;2023-04-25T17:07:56;8.30;1.00
24207;DHT22;12351;52.284;9.160;2023-04-25T17:10:46;8.30;1.00
24207;DHT22;12351;52.284;9.160;2023-04-25T17:13:35;8.30;1.00
24207;DHT22;12351;52.284;9.160;2023-04-25T17:16:33;8.30;46.90
24207;DHT22;12351;52.284;9.160;2023-04-25T17:19:14;8.20;99.90
24207;DHT22;12351;52.284;9.160;2023-04-25T17:22:05;8.30;99.90
24207;DHT22;12351;52.284;9.160;2023-04-25T17:24:57;8.20;19.00
24207;DHT22;12351;52.284;9.160;2023-04-25T17:27:46;8.10;99.90
24207;DHT22;12351;52.284;9.160;2023-04-25T17:30:38;8.10;99.90
24207;DHT22;12351;52.284;9.160;2023-04-25T17:33:29;8.10;99.90
24207;DHT22;12351;52.284;9.160;2023-04-25T17:36:20;8.10;99.90
24207;DHT22;12351;52.284;9.160;2023-04-25T17:39:10;8.20;99.90
24207;DHT22;12351;52.284;9.160;2023-04-25T17:42:00;8.30;99.90
24207;DHT22;12351;52.284;9.160;2023-04-25T17:44:47;8.40;99.90
24207;DHT22;12351;52.284;9.160;2023-04-25T17:47:34;8.40;1.00
24207;DHT22;12351;52.284;9.160;2023-04-25T17:50:21;8.30;1.00
24207;DHT22;12351;52.284;9.160;2023-04-25T17:53:09;8.30;1.00
24207;DHT22;12351;52.284;9.160;2023-04-25T17:55:56;8.30;1.00
24207;DHT22;12351;52.284;9.160;2023-04-25T17:58:43;8.20;1.00
24207;DHT22;12351;52.284;9.160;2023-04-25T18:01:30;8.20;1.00
24207;DHT22;12351;52.284;9.160;2023-04-25T18:04:18;8.10;1.00
24207;DHT22;12351;52.284;9.160;2023-04-25T18:07:05;8.20;1.00
24207;DHT22;12351;52.284;9.160;2023-04-25T18:09:52;8.10;1.00
24207;DHT22;12351;52.284;9.160;2023-04-25T18:12:39;8.10;1.00
24207;DHT22;12351;52.284;9.160;2023-04-25T18:15:27;8.10;1.00
24207;DHT22;12351;52.284;9.160;2023-04-25T18:18:14;8.00;1.00